createdAt,value
2022-07-31T00:02:34.699Z,98.70
2022-07-31T00:06:43.750Z,98.90
2022-07-31T00:10:50.526Z,98.70
2022-07-31T00:14:57.243Z,98.80
2022-07-31T00:19:04.047Z,98.70
2022-07-31T00:23:11.023Z,98.70
2022-07-31T00:27:18.134Z,98.80
2022-07-31T00:31:24.853Z,99.00
2022-07-31T00:35:31.609Z,98.90
2022-07-31T00:39:38.409Z,99.00
2022-07-31T00:43:45.110Z,98.90
2022-07-31T00:47:55.684Z,99.00
2022-07-31T00:52:02.840Z,99.10
2022-07-31T00:56:09.670Z,99.30
2022-07-31T01:00:16.654Z,99.40
2022-07-31T01:04:23.520Z,99.50
2022-07-31T01:08:30.324Z,99.60
2022-07-31T01:12:51.022Z,99.70
2022-07-31T01:17:02.918Z,99.70
2022-07-31T01:21:17.745Z,99.70
2022-07-31T01:25:43.182Z,99.70
2022-07-31T01:29:53.611Z,99.70
2022-07-31T01:34:08.696Z,99.70
2022-07-31T01:38:22.061Z,99.80
2022-07-31T01:42:30.468Z,99.80
2022-07-31T01:46:41.705Z,99.90
2022-07-31T01:50:51.572Z,99.90
2022-07-31T01:54:59.714Z,99.90
2022-07-31T01:59:20.437Z,99.90
2022-07-31T02:03:44.026Z,99.90
2022-07-31T02:07:53.609Z,99.90
2022-07-31T02:12:01.601Z,99.90
2022-07-31T02:16:10.833Z,99.90
2022-07-31T02:20:19.838Z,99.90
2022-07-31T02:24:26.708Z,99.90
2022-07-31T02:28:36.668Z,99.90
2022-07-31T02:32:47.509Z,99.90
2022-07-31T02:36:55.505Z,99.90
2022-07-31T02:41:05.152Z,99.90
2022-07-31T02:45:13.442Z,99.90
2022-07-31T02:49:20.805Z,99.90
2022-07-31T02:53:28.507Z,99.90
2022-07-31T02:57:35.275Z,99.90
2022-07-31T03:01:43.720Z,99.90
2022-07-31T03:05:50.453Z,99.90
2022-07-31T03:09:58.769Z,99.90
2022-07-31T03:14:07.337Z,99.90
2022-07-31T03:18:16.286Z,99.90
2022-07-31T03:22:23.073Z,99.90
2022-07-31T03:26:30.529Z,99.90
2022-07-31T03:30:38.935Z,99.90
2022-07-31T03:34:45.673Z,99.90
2022-07-31T03:38:52.489Z,99.90
2022-07-31T03:43:01.509Z,99.90
2022-07-31T03:47:08.573Z,99.90
2022-07-31T03:51:15.994Z,99.90
2022-07-31T03:55:22.901Z,99.90
2022-07-31T03:59:33.599Z,99.90
2022-07-31T04:03:47.572Z,99.90
2022-07-31T04:07:54.271Z,99.90
2022-07-31T04:12:01.318Z,99.90
2022-07-31T04:16:08.508Z,99.90
2022-07-31T04:20:15.624Z,99.90
2022-07-31T04:24:22.371Z,99.90
2022-07-31T04:28:29.129Z,99.90
2022-07-31T04:32:38.681Z,99.90
2022-07-31T04:36:45.402Z,99.90
2022-07-31T04:40:52.112Z,99.90
2022-07-31T04:44:58.839Z,99.90
2022-07-31T04:49:05.676Z,99.90
2022-07-31T04:53:12.499Z,99.90
2022-07-31T04:57:21.938Z,99.90
2022-07-31T05:01:29.173Z,99.90
2022-07-31T05:05:35.912Z,99.90
2022-07-31T05:09:42.661Z,99.90
2022-07-31T05:13:58.265Z,99.90
2022-07-31T05:18:07.594Z,99.90
2022-07-31T05:22:14.402Z,99.90
2022-07-31T05:26:22.515Z,99.90
2022-07-31T05:30:29.983Z,99.90
2022-07-31T05:34:37.594Z,99.90
2022-07-31T05:38:44.703Z,99.90
2022-07-31T05:42:51.414Z,99.90
2022-07-31T05:51:12.439Z,99.90
2022-07-31T05:55:19.147Z,99.90
2022-07-31T05:59:25.876Z,99.90
2022-07-31T06:03:50.501Z,99.90
2022-07-31T06:07:59.839Z,99.90
2022-07-31T06:12:07.118Z,99.90
2022-07-31T06:16:14.945Z,99.90
2022-07-31T06:20:21.755Z,99.90
2022-07-31T06:24:28.439Z,99.90
2022-07-31T06:28:49.037Z,99.90
2022-07-31T06:32:56.285Z,99.90
2022-07-31T06:37:03.039Z,99.90
2022-07-31T06:41:09.839Z,99.90
2022-07-31T06:45:35.454Z,99.90
2022-07-31T06:49:43.392Z,99.90
2022-07-31T06:53:50.213Z,99.90
2022-07-31T06:57:57.502Z,99.90
2022-07-31T07:02:04.557Z,99.90
2022-07-31T07:06:11.481Z,99.90
2022-07-31T07:10:18.192Z,99.90
2022-07-31T07:14:24.965Z,99.90
2022-07-31T07:18:31.721Z,99.90
2022-07-31T07:22:39.798Z,99.90
2022-07-31T07:26:46.545Z,99.90
2022-07-31T07:30:53.241Z,99.90
2022-07-31T07:35:00.676Z,99.90
2022-07-31T07:39:09.200Z,99.90
2022-07-31T07:43:16.000Z,99.90
2022-07-31T07:47:22.757Z,99.90
2022-07-31T07:51:29.559Z,99.90
2022-07-31T07:55:37.513Z,99.90
2022-07-31T07:59:44.604Z,99.90
2022-07-31T08:03:52.466Z,99.90
2022-07-31T08:08:00.688Z,99.90
2022-07-31T08:12:07.690Z,99.90
2022-07-31T08:16:14.516Z,99.90
2022-07-31T08:20:21.274Z,99.90
2022-07-31T08:24:28.011Z,99.90
2022-07-31T08:28:36.237Z,99.90
2022-07-31T08:32:43.020Z,99.90
2022-07-31T08:36:49.766Z,99.90
2022-07-31T08:40:56.577Z,99.90
2022-07-31T08:45:07.460Z,99.90
2022-07-31T08:49:17.840Z,99.90
2022-07-31T08:53:29.287Z,99.90
2022-07-31T08:57:36.902Z,99.90
2022-07-31T09:01:43.732Z,99.90
2022-07-31T09:05:50.479Z,99.90
2022-07-31T09:09:57.258Z,99.90
2022-07-31T09:14:05.009Z,99.90
2022-07-31T09:18:18.745Z,99.90
2022-07-31T09:22:28.572Z,99.90
2022-07-31T09:26:36.571Z,99.90
2022-07-31T09:30:55.473Z,99.90
2022-07-31T09:35:11.886Z,99.90
2022-07-31T09:39:26.922Z,99.90
2022-07-31T09:43:34.436Z,99.90
2022-07-31T09:48:14.361Z,99.90
2022-07-31T09:52:25.695Z,99.90
2022-07-31T09:56:36.107Z,99.90
2022-07-31T10:00:43.218Z,99.90
2022-07-31T10:04:53.404Z,99.90
2022-07-31T10:09:02.111Z,99.90
2022-07-31T10:13:15.374Z,99.90
2022-07-31T10:17:28.569Z,99.90
2022-07-31T10:21:40.155Z,99.90
2022-07-31T10:25:53.899Z,99.90
2022-07-31T10:30:01.346Z,99.90
2022-07-31T10:34:08.333Z,99.90
2022-07-31T10:38:25.042Z,99.90
2022-07-31T10:43:10.879Z,99.90
2022-07-31T10:47:18.911Z,99.90
2022-07-31T10:51:26.690Z,99.90
2022-07-31T10:55:34.982Z,99.90
2022-07-31T10:59:44.855Z,99.90
2022-07-31T11:04:00.390Z,99.90
2022-07-31T11:08:08.197Z,99.90
2022-07-31T11:12:19.372Z,99.90
2022-07-31T11:16:26.932Z,99.90
2022-07-31T11:20:33.679Z,99.90
2022-07-31T11:24:40.570Z,99.90
2022-07-31T11:28:47.396Z,99.90
2022-07-31T11:32:54.216Z,99.90
2022-07-31T11:37:00.954Z,99.90
2022-07-31T11:41:07.875Z,99.90
2022-07-31T11:45:17.167Z,99.90
2022-07-31T11:49:39.112Z,99.90
2022-07-31T11:53:56.800Z,99.90
2022-07-31T11:58:11.053Z,99.90
2022-07-31T12:02:18.402Z,99.90
2022-07-31T12:06:25.197Z,99.90
2022-07-31T12:10:31.970Z,99.90
2022-07-31T12:14:40.119Z,99.90
2022-07-31T12:18:48.467Z,99.90
2022-07-31T12:23:02.163Z,99.90
2022-07-31T12:27:09.105Z,99.90
2022-07-31T12:31:18.466Z,99.90
2022-07-31T12:35:38.445Z,99.90
2022-07-31T12:40:01.734Z,99.90
2022-07-31T12:44:14.622Z,99.90
2022-07-31T12:48:21.482Z,99.90
2022-07-31T12:52:30.734Z,99.90
2022-07-31T12:56:39.999Z,99.90
2022-07-31T13:00:46.730Z,99.90
2022-07-31T13:04:53.534Z,99.90
2022-07-31T13:09:00.226Z,99.90
2022-07-31T13:13:07.064Z,99.90
2022-07-31T13:17:13.838Z,99.90
2022-07-31T13:21:20.630Z,99.90
2022-07-31T13:25:30.690Z,99.90
2022-07-31T13:29:37.434Z,99.90
2022-07-31T13:33:44.244Z,99.90
2022-07-31T13:37:50.977Z,99.90
2022-07-31T13:41:57.736Z,99.90
2022-07-31T13:46:04.591Z,99.90
2022-07-31T13:50:11.326Z,99.90
2022-07-31T13:54:18.201Z,99.90
2022-07-31T13:58:28.278Z,99.90
2022-07-31T14:02:35.078Z,99.90
2022-07-31T14:06:41.856Z,99.90
2022-07-31T14:10:52.652Z,99.90
2022-07-31T14:14:59.419Z,99.90
2022-07-31T14:19:06.149Z,99.90
2022-07-31T14:23:13.859Z,99.90
2022-07-31T14:27:20.755Z,99.90
2022-07-31T14:31:27.571Z,99.90
2022-07-31T14:35:34.355Z,99.90
2022-07-31T14:39:42.866Z,99.90
2022-07-31T14:43:50.188Z,99.90
2022-07-31T14:47:57.050Z,99.90
2022-07-31T14:52:04.222Z,99.90
2022-07-31T14:56:10.998Z,99.90
2022-07-31T15:00:17.791Z,99.90
2022-07-31T15:04:24.869Z,99.90
2022-07-31T15:08:31.748Z,99.90
2022-07-31T15:12:38.815Z,99.90
2022-07-31T15:16:45.684Z,99.90
2022-07-31T15:20:56.613Z,99.90
2022-07-31T15:25:03.480Z,99.90
2022-07-31T15:29:10.345Z,99.90
2022-07-31T15:33:17.101Z,99.90
2022-07-31T15:37:23.909Z,99.90
2022-07-31T15:41:31.160Z,99.90
2022-07-31T15:45:37.947Z,99.90
2022-07-31T15:49:44.765Z,99.90
2022-07-31T15:53:51.556Z,99.90
2022-07-31T15:57:58.324Z,99.90
2022-07-31T16:02:05.069Z,99.90
2022-07-31T16:06:14.159Z,99.90
2022-07-31T16:10:21.671Z,99.90
2022-07-31T16:14:28.373Z,99.90
2022-07-31T16:18:36.342Z,99.90
2022-07-31T16:22:44.199Z,99.90
2022-07-31T16:26:50.944Z,99.90
2022-07-31T16:30:57.711Z,99.90
2022-07-31T16:35:06.283Z,99.90
2022-07-31T16:39:20.646Z,99.90
2022-07-31T16:43:47.483Z,99.90
2022-07-31T16:47:54.335Z,99.90
2022-07-31T16:52:01.421Z,99.90
2022-07-31T16:56:08.163Z,99.90
2022-07-31T17:00:15.208Z,99.90
2022-07-31T17:04:21.927Z,99.90
2022-07-31T17:08:29.358Z,99.90
2022-07-31T17:12:36.333Z,99.90
2022-07-31T17:16:47.059Z,99.90
2022-07-31T17:20:55.972Z,99.90
2022-07-31T17:25:07.062Z,99.90
2022-07-31T17:29:13.989Z,99.90
2022-07-31T17:33:20.921Z,99.90
2022-07-31T17:37:47.690Z,99.90
2022-07-31T17:41:54.385Z,99.90
2022-07-31T17:46:08.457Z,99.90
2022-07-31T17:50:24.272Z,99.90
2022-07-31T17:54:32.457Z,99.90
2022-07-31T17:58:39.189Z,99.90
2022-07-31T18:02:46.008Z,99.90
2022-07-31T18:06:54.868Z,99.90
2022-07-31T18:11:01.870Z,99.90
2022-07-31T18:15:10.017Z,99.90
2022-07-31T18:19:17.258Z,99.90
2022-07-31T18:23:29.331Z,99.90
2022-07-31T18:27:38.973Z,99.90
2022-07-31T18:31:46.521Z,99.90
2022-07-31T18:35:53.635Z,99.90
2022-07-31T18:40:00.441Z,99.90
2022-07-31T18:44:07.183Z,99.90
2022-07-31T18:48:14.053Z,99.90
2022-07-31T18:52:20.770Z,99.90
2022-07-31T18:56:27.768Z,99.90
2022-07-31T19:00:34.674Z,99.90
2022-07-31T19:04:41.420Z,99.90
2022-07-31T19:08:49.568Z,99.90
2022-07-31T19:12:56.496Z,99.90
2022-07-31T19:17:03.910Z,99.90
2022-07-31T19:21:21.366Z,99.90
2022-07-31T19:25:59.602Z,99.90
2022-07-31T19:30:05.884Z,99.90
2022-07-31T19:34:13.616Z,99.90
2022-07-31T19:38:20.328Z,99.90
2022-07-31T19:42:27.100Z,99.90
2022-07-31T19:46:34.247Z,99.90
2022-07-31T19:50:40.998Z,99.90
2022-07-31T19:54:47.780Z,99.90
2022-07-31T19:58:54.491Z,99.90
2022-07-31T20:03:01.252Z,99.90
2022-07-31T20:07:08.004Z,99.90
2022-07-31T20:11:17.624Z,99.90
2022-07-31T20:15:24.449Z,99.90
2022-07-31T20:19:31.258Z,99.90
2022-07-31T20:23:39.149Z,99.90
2022-07-31T20:27:45.952Z,99.90
2022-07-31T20:31:53.508Z,99.90
2022-07-31T20:36:00.314Z,99.90
2022-07-31T20:40:08.602Z,99.90
2022-07-31T20:44:15.406Z,99.90
2022-07-31T20:48:24.217Z,99.90
2022-07-31T20:52:31.383Z,99.90
2022-07-31T20:56:38.112Z,99.90
2022-07-31T21:00:45.494Z,99.90
2022-07-31T21:04:52.264Z,99.90
2022-07-31T21:08:58.988Z,99.90
2022-07-31T21:13:11.541Z,99.90
2022-07-31T21:17:18.261Z,99.90
2022-07-31T21:21:25.041Z,99.90
2022-07-31T21:25:32.274Z,99.90
2022-07-31T21:29:39.216Z,99.90
2022-07-31T21:33:46.817Z,99.90
2022-07-31T21:37:55.556Z,99.90
2022-07-31T21:42:05.560Z,99.90
2022-07-31T21:46:20.646Z,99.90
2022-07-31T21:50:29.635Z,99.90
2022-07-31T21:54:36.453Z,99.90
2022-07-31T21:58:46.651Z,99.90
2022-07-31T22:02:53.381Z,99.90
2022-07-31T22:07:18.707Z,99.90
2022-07-31T22:11:25.446Z,99.90
2022-07-31T22:15:58.905Z,99.90
2022-07-31T22:19:59.237Z,99.90
2022-07-31T22:24:06.616Z,99.90
2022-07-31T22:28:13.521Z,99.90
2022-07-31T22:32:20.246Z,99.90
2022-07-31T22:36:27.365Z,99.90
2022-07-31T22:40:34.305Z,99.90
2022-07-31T22:44:41.143Z,99.90
2022-07-31T22:48:48.177Z,99.90
2022-07-31T22:52:54.962Z,99.90
2022-07-31T22:57:01.728Z,99.90
2022-07-31T23:01:08.496Z,99.90
2022-07-31T23:05:15.231Z,99.90
2022-07-31T23:09:22.453Z,99.90
2022-07-31T23:13:29.191Z,99.90
2022-07-31T23:17:36.165Z,99.90
2022-07-31T23:21:43.348Z,99.90
2022-07-31T23:25:50.471Z,99.90
2022-07-31T23:29:58.633Z,99.90
2022-07-31T23:34:05.383Z,99.90
2022-07-31T23:38:13.190Z,99.90
2022-07-31T23:42:37.979Z,99.90
2022-07-31T23:46:44.719Z,99.90
2022-07-31T23:50:51.864Z,99.90
2022-07-31T23:54:58.673Z,99.90
2022-07-31T23:59:05.390Z,99.90
